NJE409 BIRK-LFPB
Flight info
| Callsign | NJE409 |
|---|---|
| Flight time | N/A |
| Altitude | 45000 |
| Route | METIL DCT 60N015W DCT GOMUP/N0422F450 DCT DONIB DCT SOSIM L15 HON UL612 WOD UM605 PETAX UZ296 VELOL |
| Aircraft | C68A/M-SDFGHRWY/SB1 |
Departure
| Time | 2026-04-29 02:39 |
|---|---|
| Airport | Reykjavík Domestic Airport (BIRK) |
Arrival
| Time | N/A |
|---|---|
| Airport | Paris-Le Bourget International Airport (LFPB) |
| Time | Latitude | Longitude | Altitude | Speed | Heading |
|---|---|---|---|---|---|
| 2026-04-29 02:11 | 64.13086 | -21.93447 | 42 ft | 0 kts | 1° |
| 2026-04-29 02:35 | 64.13120 | -21.93494 | 42 ft | 10 kts | 311° |
| 2026-04-29 02:35 | 64.13177 | -21.93561 | 44 ft | 9 kts | 356° |
| 2026-04-29 02:35 | 64.13279 | -21.93581 | 40 ft | 21 kts | 355° |
| 2026-04-29 02:36 | 64.13425 | -21.93609 | 35 ft | 20 kts | 355° |
| 2026-04-29 02:36 | 64.13536 | -21.93631 | 30 ft | 12 kts | 349° |
| 2026-04-29 02:36 | 64.13600 | -21.93731 | 27 ft | 11 kts | 311° |
| 2026-04-29 02:36 | 64.13629 | -21.93836 | 28 ft | 4 kts | 279° |
| 2026-04-29 02:37 | 64.13601 | -21.93890 | 30 ft | 0 kts | 177° |
| 2026-04-29 02:38 | 64.13586 | -21.93888 | 30 ft | 19 kts | 176° |
| 2026-04-29 02:38 | 64.13108 | -21.93795 | 44 ft | 119 kts | 175° |
| 2026-04-29 02:38 | 64.11983 | -21.93558 | 313 ft | 194 kts | 174° |
| 2026-04-29 02:39 | 64.11011 | -21.93325 | 802 ft | 228 kts | 173° |
| 2026-04-29 02:39 | 64.09374 | -21.92814 | 1972 ft | 241 kts | 171° |
| 2026-04-29 02:39 | 64.07209 | -21.91517 | 3528 ft | 247 kts | 154° |
| 2026-04-29 02:39 | 64.05833 | -21.89052 | 4503 ft | 257 kts | 134° |
| 2026-04-29 02:40 | 64.04647 | -21.86078 | 5458 ft | 249 kts | 131° |
| 2026-04-29 02:40 | 64.03903 | -21.84057 | 6061 ft | 242 kts | 130° |
| 2026-04-29 02:40 | 64.02824 | -21.81190 | 7216 ft | 243 kts | 132° |
| 2026-04-29 02:40 | 64.01683 | -21.78222 | 8697 ft | 248 kts | 131° |
| 2026-04-29 02:41 | 64.00558 | -21.75280 | 10148 ft | 249 kts | 131° |
| 2026-04-29 02:41 | 63.99785 | -21.73250 | 11048 ft | 254 kts | 131° |
| 2026-04-29 02:41 | 63.98226 | -21.69167 | 12691 ft | 261 kts | 131° |
| 2026-04-29 02:41 | 63.97026 | -21.66009 | 13870 ft | 267 kts | 129° |
| 2026-04-29 02:42 | 63.96214 | -21.62210 | 15003 ft | 272 kts | 101° |
| 2026-04-29 02:42 | 63.96083 | -21.57860 | 16056 ft | 279 kts | 90° |
| 2026-04-29 02:42 | 63.95919 | -21.53449 | 17086 ft | 282 kts | 108° |
| 2026-04-29 02:42 | 63.95026 | -21.49452 | 18069 ft | 287 kts | 126° |
| 2026-04-29 02:43 | 63.93640 | -21.46165 | 19012 ft | 291 kts | 137° |
| 2026-04-29 02:43 | 63.92183 | -21.42920 | 19921 ft | 295 kts | 135° |
| 2026-04-29 02:43 | 63.90670 | -21.39727 | 20802 ft | 300 kts | 140° |
| 2026-04-29 02:43 | 63.89035 | -21.36719 | 21645 ft | 304 kts | 142° |
| 2026-04-29 02:44 | 63.87391 | -21.33644 | 22454 ft | 308 kts | 140° |
| 2026-04-29 02:44 | 63.85761 | -21.30431 | 23228 ft | 312 kts | 139° |
| 2026-04-29 02:44 | 63.84117 | -21.27240 | 23976 ft | 316 kts | 140° |
| 2026-04-29 02:44 | 63.82408 | -21.23960 | 24711 ft | 320 kts | 140° |
| 2026-04-29 02:45 | 63.80720 | -21.20707 | 25408 ft | 324 kts | 140° |
| 2026-04-29 02:45 | 63.78991 | -21.17390 | 26085 ft | 328 kts | 140° |
| 2026-04-29 02:45 | 63.77235 | -21.14038 | 26733 ft | 332 kts | 140° |
| 2026-04-29 02:45 | 63.75463 | -21.10649 | 27364 ft | 335 kts | 140° |
| 2026-04-29 02:46 | 63.73676 | -21.07227 | 27968 ft | 339 kts | 140° |
| 2026-04-29 02:46 | 63.71861 | -21.03792 | 28551 ft | 342 kts | 140° |